createdAt,value
2023-10-24T00:00:01.396Z,98839.34
2023-10-24T00:02:28.896Z,98847.03
2023-10-24T00:04:56.235Z,98844.59
2023-10-24T00:07:24.994Z,98862.44
2023-10-24T00:09:52.892Z,98856.63
2023-10-24T00:12:20.146Z,98856.44
2023-10-24T00:14:58.420Z,98858.41
2023-10-24T00:17:26.637Z,98859.75
2023-10-24T00:19:54.680Z,98856.63
2023-10-24T00:22:21.856Z,98848.34
2023-10-24T00:24:54.721Z,98835.97
2023-10-24T00:27:22.036Z,98816.72
2023-10-24T00:29:51.353Z,98815.63
2023-10-24T00:32:19.771Z,98820.50
2023-10-24T00:34:47.778Z,98824.19
2023-10-24T00:37:14.792Z,98839.28
2023-10-24T00:39:43.115Z,98839.28
2023-10-24T00:42:11.715Z,98858.13
2023-10-24T00:44:38.870Z,98873.03
2023-10-24T00:47:07.349Z,98864.22
2023-10-24T00:49:35.096Z,98863.38
2023-10-24T00:52:03.380Z,98868.84
2023-10-24T00:54:35.485Z,98860.66
2023-10-24T00:57:04.638Z,98865.47
2023-10-24T00:59:33.460Z,98877.28
2023-10-24T01:02:01.383Z,98865.97
2023-10-24T01:04:29.378Z,98861.41
2023-10-24T01:06:56.473Z,98857.41
2023-10-24T01:09:23.638Z,98847.09
2023-10-24T01:11:51.775Z,98847.53
2023-10-24T01:14:19.763Z,98849.38
2023-10-24T01:16:48.382Z,98846.84
2023-10-24T01:19:15.909Z,98836.81
2023-10-24T01:21:48.736Z,98833.09
2023-10-24T01:24:17.865Z,98833.28
2023-10-24T01:26:46.230Z,98827.41
2023-10-24T01:29:13.423Z,98828.00
2023-10-24T01:31:41.052Z,98823.03
2023-10-24T01:34:09.528Z,98829.59
2023-10-24T01:36:39.635Z,98830.47
2023-10-24T01:39:08.672Z,98833.00
2023-10-24T01:41:35.805Z,98843.38
2023-10-24T01:44:02.887Z,98827.34
2023-10-24T01:46:32.703Z,98823.53
2023-10-24T01:49:01.217Z,98823.78
2023-10-24T01:51:28.128Z,98833.59
2023-10-24T01:53:55.069Z,98825.44
2023-10-24T01:56:24.768Z,98818.63
2023-10-24T01:58:53.457Z,98826.50
2023-10-24T02:01:20.689Z,98808.84
2023-10-24T02:03:48.028Z,98805.03
2023-10-24T02:06:16.033Z,98823.78
2023-10-24T02:08:43.276Z,98801.44
2023-10-24T02:11:11.273Z,98820.94
2023-10-24T02:13:40.254Z,98793.75
2023-10-24T02:16:10.597Z,98798.81
2023-10-24T02:18:37.642Z,98814.59
2023-10-24T02:21:07.242Z,98807.81
2023-10-24T02:23:35.746Z,98814.38
2023-10-24T02:26:03.412Z,98810.03
2023-10-24T02:28:32.613Z,98842.25
2023-10-24T02:31:04.380Z,98836.94
2023-10-24T02:33:32.700Z,98823.66
2023-10-24T02:36:07.943Z,98830.25
2023-10-24T02:38:35.034Z,98809.94
2023-10-24T02:41:04.292Z,98813.00
2023-10-24T02:43:32.290Z,98817.44
2023-10-24T02:46:05.359Z,98813.69
2023-10-24T02:48:33.610Z,98805.03
2023-10-24T02:51:01.713Z,98815.97
2023-10-24T02:53:29.001Z,98803.41
2023-10-24T02:56:02.629Z,98814.84
2023-10-24T02:58:30.019Z,98812.94
2023-10-24T03:01:05.262Z,98825.72
2023-10-24T03:03:35.214Z,98830.66
2023-10-24T03:06:23.200Z,98832.59
2023-10-24T03:08:50.936Z,98844.03
2023-10-24T03:11:23.041Z,98857.34
2023-10-24T03:13:55.302Z,98867.97
2023-10-24T03:16:24.774Z,98867.47
2023-10-24T03:18:52.408Z,98848.13
2023-10-24T03:21:20.150Z,98851.75
2023-10-24T03:23:47.127Z,98856.94
2023-10-24T03:26:14.064Z,98859.34
2023-10-24T03:28:41.554Z,98860.63
2023-10-24T03:31:10.479Z,98844.41
2023-10-24T03:33:47.390Z,98853.97
2023-10-24T03:36:15.595Z,98867.09
2023-10-24T03:38:43.189Z,98871.53
2023-10-24T03:41:10.463Z,98854.97
2023-10-24T03:43:38.335Z,98836.56
2023-10-24T03:46:08.686Z,98827.91
2023-10-24T03:48:35.702Z,98823.03
2023-10-24T03:51:04.328Z,98817.56
2023-10-24T03:53:31.714Z,98809.16
2023-10-24T03:56:01.324Z,98813.25
2023-10-24T03:58:29.388Z,98808.13
2023-10-24T04:01:03.197Z,98811.81
2023-10-24T04:03:30.712Z,98804.50
2023-10-24T04:05:57.693Z,98810.22
2023-10-24T04:08:26.032Z,98808.34
2023-10-24T04:10:53.471Z,98815.09
2023-10-24T04:13:21.223Z,98809.09
2023-10-24T04:15:57.344Z,98805.03
2023-10-24T04:18:26.182Z,98794.75
2023-10-24T04:20:53.214Z,98770.28
2023-10-24T04:23:20.656Z,98765.59
2023-10-24T04:25:49.122Z,98775.66
2023-10-24T04:28:17.568Z,98772.88
2023-10-24T04:30:46.056Z,98758.81
2023-10-24T04:33:13.797Z,98745.91
2023-10-24T04:35:47.016Z,98751.69
2023-10-24T04:38:14.557Z,98766.50
2023-10-24T04:40:43.848Z,98774.72
2023-10-24T04:43:14.156Z,98779.66
2023-10-24T04:45:42.172Z,98781.34
2023-10-24T04:48:10.266Z,98772.38
2023-10-24T04:50:38.851Z,98771.03
2023-10-24T04:53:06.415Z,98761.19
2023-10-24T04:55:34.061Z,98763.88
2023-10-24T04:58:01.385Z,98762.03
2023-10-24T05:00:32.735Z,98767.78
2023-10-24T05:03:00.528Z,98748.78
2023-10-24T05:05:30.020Z,98754.47
2023-10-24T05:07:57.051Z,98754.97
2023-10-24T05:10:24.086Z,98751.63
2023-10-24T05:12:51.434Z,98732.09
2023-10-24T05:15:20.644Z,98737.00
2023-10-24T05:17:50.555Z,98737.25
2023-10-24T05:20:18.976Z,98737.53
2023-10-24T05:22:46.156Z,98724.03
2023-10-24T05:25:13.276Z,98723.53
2023-10-24T05:27:40.189Z,98725.72
2023-10-24T05:30:09.607Z,98722.16
2023-10-24T05:32:38.832Z,98730.59
2023-10-24T05:35:08.123Z,98719.22
2023-10-24T05:37:37.733Z,98710.41
2023-10-24T05:40:06.500Z,98699.94
2023-10-24T05:42:33.963Z,98698.06
2023-10-24T05:45:01.142Z,98699.94
2023-10-24T05:47:28.726Z,98694.16
2023-10-24T05:49:55.813Z,98703.78
2023-10-24T05:52:25.128Z,98698.53
2023-10-24T05:54:52.539Z,98701.06
2023-10-24T05:57:20.087Z,98690.63
2023-10-24T05:59:49.777Z,98704.38
2023-10-24T06:02:16.900Z,98705.13
2023-10-24T06:04:44.357Z,98713.66
2023-10-24T06:07:12.199Z,98702.03
2023-10-24T06:09:41.821Z,98690.72
2023-10-24T06:12:10.617Z,98690.00
2023-10-24T06:14:37.718Z,98699.06
2023-10-24T06:17:05.253Z,98706.19
2023-10-24T06:19:32.319Z,98714.91
2023-10-24T06:22:00.590Z,98730.09
2023-10-24T06:24:32.645Z,98723.91
2023-10-24T06:27:13.007Z,98724.22
2023-10-24T06:29:40.424Z,98732.16
2023-10-24T06:32:08.841Z,98739.78
2023-10-24T06:34:41.762Z,98747.41
2023-10-24T06:37:10.531Z,98748.00
2023-10-24T06:39:37.924Z,98756.72
2023-10-24T06:42:06.721Z,98762.69
2023-10-24T06:44:33.826Z,98764.59
2023-10-24T06:47:02.040Z,98765.66
2023-10-24T06:49:32.920Z,98753.63
2023-10-24T06:52:00.223Z,98760.69
2023-10-24T06:54:37.945Z,98766.44
2023-10-24T06:57:35.028Z,98764.78
2023-10-24T07:00:12.617Z,98759.88
2023-10-24T07:05:23.192Z,98772.66
2023-10-24T07:07:51.167Z,98767.22
2023-10-24T07:10:20.848Z,98761.63
2023-10-24T07:15:32.314Z,98766.81
2023-10-24T07:17:59.809Z,98752.16
2023-10-24T07:20:34.865Z,98744.28
2023-10-24T07:23:03.354Z,98744.00
2023-10-24T07:25:30.732Z,98760.75
2023-10-24T07:28:03.645Z,98761.00
2023-10-24T07:30:31.156Z,98761.28
2023-10-24T07:32:59.319Z,98751.91
2023-10-24T07:35:26.663Z,98748.81
2023-10-24T07:37:55.067Z,98749.22
2023-10-24T07:40:22.030Z,98753.94
2023-10-24T07:42:49.155Z,98758.59
2023-10-24T07:45:20.805Z,98756.41
2023-10-24T07:47:48.163Z,98756.81
2023-10-24T07:50:15.294Z,98757.47
2023-10-24T07:52:42.465Z,98754.31
2023-10-24T07:55:10.085Z,98738.09
2023-10-24T07:57:37.664Z,98737.59
2023-10-24T08:00:06.737Z,98723.25
2023-10-24T08:02:41.812Z,98729.53
2023-10-24T08:05:09.704Z,98730.69
2023-10-24T08:07:36.630Z,98726.91
2023-10-24T08:10:04.076Z,98736.19
2023-10-24T08:12:31.200Z,98742.75
2023-10-24T08:15:00.762Z,98746.56
2023-10-24T08:17:27.778Z,98743.34
2023-10-24T08:19:56.428Z,98750.97
2023-10-24T08:22:23.856Z,98755.31
2023-10-24T08:24:51.451Z,98764.03
2023-10-24T08:27:18.656Z,98756.44
2023-10-24T08:29:45.546Z,98767.31
2023-10-24T08:32:15.561Z,98768.94
2023-10-24T08:34:43.467Z,98765.72
2023-10-24T08:37:12.946Z,98758.38
2023-10-24T08:39:40.379Z,98757.56
2023-10-24T08:42:11.271Z,98756.97
2023-10-24T08:44:41.325Z,98755.34
2023-10-24T08:47:11.533Z,98752.38
2023-10-24T08:49:40.050Z,98738.78
2023-10-24T08:52:22.579Z,98736.06
2023-10-24T08:54:55.545Z,98741.81
2023-10-24T08:57:28.986Z,98731.47
2023-10-24T08:59:58.531Z,98742.91
2023-10-24T09:02:26.266Z,98744.00
2023-10-24T09:04:53.360Z,98746.63
2023-10-24T09:07:20.469Z,98754.78
2023-10-24T09:09:50.174Z,98746.28
2023-10-24T09:12:18.846Z,98756.13
2023-10-24T09:14:54.109Z,98761.00
2023-10-24T09:17:27.173Z,98757.75
2023-10-24T09:19:56.973Z,98759.53
2023-10-24T09:22:28.875Z,98770.28
2023-10-24T09:24:57.955Z,98774.06
2023-10-24T09:27:29.619Z,98780.22
2023-10-24T09:29:57.556Z,98774.91
2023-10-24T09:32:26.581Z,98773.81
2023-10-24T09:34:54.400Z,98765.56
2023-10-24T09:37:21.461Z,98767.56
2023-10-24T09:39:57.061Z,98764.97
2023-10-24T09:42:31.660Z,98759.94
2023-10-24T09:45:03.411Z,98756.72
2023-10-24T09:47:34.215Z,98756.06
2023-10-24T09:50:04.222Z,98762.50
2023-10-24T09:52:32.817Z,98766.69
2023-10-24T09:55:01.650Z,98762.34
2023-10-24T09:57:32.742Z,98756.41
2023-10-24T10:00:01.128Z,98759.81
2023-10-24T10:02:29.227Z,98760.31
2023-10-24T10:04:56.924Z,98756.19
2023-10-24T10:07:27.062Z,98759.66
2023-10-24T10:09:55.621Z,98766.47
2023-10-24T10:12:23.953Z,98758.19
2023-10-24T10:15:27.559Z,98759.00
2023-10-24T10:18:15.767Z,98746.09
2023-10-24T10:21:06.869Z,98762.03
2023-10-24T10:24:12.703Z,98752.53
2023-10-24T10:27:02.569Z,98750.16
2023-10-24T10:29:48.756Z,98755.56
2023-10-24T10:32:38.162Z,98735.56
2023-10-24T10:35:22.570Z,98726.97
2023-10-24T10:38:01.569Z,98728.38
2023-10-24T10:40:29.811Z,98727.81
2023-10-24T10:42:57.130Z,98722.44
2023-10-24T10:45:29.951Z,98719.88
2023-10-24T10:48:01.659Z,98718.19
2023-10-24T10:50:30.286Z,98714.28
2023-10-24T10:53:21.204Z,98706.63
2023-10-24T10:56:18.274Z,98703.38
2023-10-24T10:59:18.028Z,98711.59
2023-10-24T11:02:03.367Z,98693.72
2023-10-24T11:04:33.226Z,98692.97
2023-10-24T11:07:01.793Z,98690.53
2023-10-24T11:09:35.667Z,98686.00
2023-10-24T11:12:27.847Z,98688.69
2023-10-24T11:15:25.362Z,98703.31
2023-10-24T11:17:54.716Z,98702.94
2023-10-24T11:20:25.803Z,98697.50
2023-10-24T11:22:53.002Z,98690.97
2023-10-24T11:25:22.792Z,98683.94
2023-10-24T11:27:50.262Z,98692.72
2023-10-24T11:30:17.702Z,98693.16
2023-10-24T11:32:46.927Z,98685.72
2023-10-24T11:35:13.918Z,98681.72
2023-10-24T11:37:42.695Z,98683.19
2023-10-24T11:40:10.952Z,98686.56
2023-10-24T11:42:37.957Z,98674.03
2023-10-24T11:45:06.427Z,98673.59
2023-10-24T11:47:34.173Z,98673.19
2023-10-24T11:50:02.490Z,98674.63
2023-10-24T11:52:32.496Z,98675.06
2023-10-24T11:55:02.805Z,98674.84
2023-10-24T11:57:32.288Z,98668.47
2023-10-24T11:59:59.886Z,98668.25
2023-10-24T12:02:27.133Z,98666.66
2023-10-24T12:04:58.097Z,98666.63
2023-10-24T12:07:27.458Z,98657.94
2023-10-24T12:10:10.677Z,98657.38
2023-10-24T12:12:38.028Z,98657.16
2023-10-24T12:15:07.509Z,98653.03
2023-10-24T12:17:36.242Z,98653.06
2023-10-24T12:20:10.528Z,98654.97
2023-10-24T12:22:37.985Z,98657.16
2023-10-24T12:25:08.879Z,98649.66
2023-10-24T12:27:37.128Z,98657.91
2023-10-24T12:30:05.774Z,98652.50
2023-10-24T12:32:32.836Z,98647.38
2023-10-24T12:35:00.536Z,98650.13
2023-10-24T12:37:27.518Z,98652.56
2023-10-24T12:39:55.328Z,98650.53
2023-10-24T12:42:23.605Z,98656.06
2023-10-24T12:44:52.187Z,98652.59
2023-10-24T12:47:19.655Z,98639.53
2023-10-24T12:49:47.220Z,98637.03
2023-10-24T12:52:16.377Z,98645.91
2023-10-24T12:54:44.260Z,98638.50
2023-10-24T12:57:11.536Z,98635.72
2023-10-24T12:59:38.794Z,98638.59
2023-10-24T13:02:07.465Z,98638.63
2023-10-24T13:04:35.153Z,98639.97
2023-10-24T13:07:03.995Z,98633.31
2023-10-24T13:09:31.698Z,98629.56
2023-10-24T13:12:00.756Z,98627.94
2023-10-24T13:14:27.715Z,98626.72
2023-10-24T13:17:12.903Z,98625.66
2023-10-24T13:19:47.760Z,98628.59
2023-10-24T13:22:14.990Z,98623.63
2023-10-24T13:24:42.017Z,98621.97
2023-10-24T13:27:10.146Z,98621.25
2023-10-24T13:29:37.521Z,98617.13
2023-10-24T13:32:06.520Z,98622.03
2023-10-24T13:37:05.466Z,98618.47
2023-10-24T13:39:32.542Z,98616.09
2023-10-24T13:42:00.014Z,98612.34
2023-10-24T13:44:27.359Z,98606.44
2023-10-24T13:46:56.112Z,98606.47
2023-10-24T13:49:23.396Z,98609.22
2023-10-24T13:51:53.217Z,98611.56
2023-10-24T13:54:21.733Z,98611.34
2023-10-24T13:56:50.104Z,98607.13
2023-10-24T13:59:20.938Z,98604.00
2023-10-24T14:01:50.732Z,98599.47
2023-10-24T14:04:20.996Z,98594.41
2023-10-24T14:06:49.674Z,98594.47
2023-10-24T14:09:18.185Z,98594.47
2023-10-24T14:11:47.332Z,98590.16
2023-10-24T14:14:16.339Z,98594.53
2023-10-24T14:16:44.303Z,98599.13
2023-10-24T14:19:11.583Z,98600.50
2023-10-24T14:21:39.062Z,98597.47
2023-10-24T14:24:08.141Z,98603.88
2023-10-24T14:26:36.005Z,98598.47
2023-10-24T14:29:06.892Z,98603.16
2023-10-24T14:31:35.569Z,98610.66
2023-10-24T14:34:03.378Z,98603.69
2023-10-24T14:36:30.985Z,98604.56
2023-10-24T14:38:58.100Z,98592.25
2023-10-24T14:41:25.065Z,98598.38
2023-10-24T14:43:52.377Z,98592.44
2023-10-24T14:46:23.713Z,98600.06
2023-10-24T14:48:52.405Z,98608.22
2023-10-24T14:51:19.677Z,98599.78
2023-10-24T14:53:46.582Z,98604.09
2023-10-24T14:56:13.742Z,98591.59
2023-10-24T14:58:41.155Z,98594.28
2023-10-24T15:01:09.718Z,98596.78
2023-10-24T15:03:38.576Z,98590.28
2023-10-24T15:06:07.464Z,98586.22
2023-10-24T15:08:34.735Z,98585.63
2023-10-24T15:11:02.144Z,98587.00
2023-10-24T15:13:29.049Z,98587.28
2023-10-24T15:15:57.870Z,98592.16
2023-10-24T15:18:24.864Z,98584.38
2023-10-24T15:20:53.407Z,98589.84
2023-10-24T15:23:21.919Z,98585.50
2023-10-24T15:25:51.340Z,98587.16
2023-10-24T15:28:19.371Z,98583.94
2023-10-24T15:30:46.671Z,98581.78
2023-10-24T15:33:13.631Z,98573.63
2023-10-24T15:35:40.587Z,98576.88
2023-10-24T15:38:11.724Z,98577.97
2023-10-24T15:40:39.328Z,98573.59
2023-10-24T15:43:07.704Z,98569.81
2023-10-24T15:45:34.994Z,98569.00
2023-10-24T15:48:03.655Z,98571.16
2023-10-24T15:50:30.584Z,98573.63
2023-10-24T15:52:57.954Z,98578.53
2023-10-24T15:55:27.872Z,98572.03
2023-10-24T15:57:57.869Z,98578.28
2023-10-24T16:00:29.697Z,98573.91
2023-10-24T16:02:57.230Z,98582.59
2023-10-24T16:05:24.294Z,98581.75
2023-10-24T16:07:51.448Z,98578.44
2023-10-24T16:10:21.598Z,98564.78
2023-10-24T16:12:50.123Z,98567.03
2023-10-24T16:15:17.366Z,98561.88
2023-10-24T16:17:44.236Z,98559.69
2023-10-24T16:20:12.590Z,98558.91
2023-10-24T16:22:39.748Z,98565.16
2023-10-24T16:25:08.878Z,98562.44
2023-10-24T16:27:36.659Z,98560.25
2023-10-24T16:30:07.420Z,98560.28
2023-10-24T16:32:34.870Z,98564.34
2023-10-24T16:35:02.498Z,98560.81
2023-10-24T16:37:29.466Z,98562.19
2023-10-24T16:39:57.524Z,98570.63
2023-10-24T16:42:24.822Z,98568.97
2023-10-24T16:44:52.382Z,98571.44
2023-10-24T16:47:20.938Z,98565.19
2023-10-24T16:49:48.737Z,98572.81
2023-10-24T16:52:16.169Z,98570.88
2023-10-24T16:54:43.639Z,98575.50
2023-10-24T16:57:11.635Z,98568.19
2023-10-24T16:59:39.547Z,98569.53
2023-10-24T17:02:07.309Z,98555.41
2023-10-24T17:04:38.635Z,98566.56
2023-10-24T17:07:05.940Z,98588.31
2023-10-24T17:09:33.508Z,98595.06
2023-10-24T17:12:00.816Z,98576.34
2023-10-24T17:14:27.700Z,98570.09
2023-10-24T17:16:56.545Z,98566.28
2023-10-24T17:19:24.139Z,98568.44
2023-10-24T17:21:52.818Z,98565.97
2023-10-24T17:24:21.675Z,98580.16
2023-10-24T17:26:49.001Z,98588.31
2023-10-24T17:29:18.037Z,98588.56
2023-10-24T17:31:45.124Z,98591.84
2023-10-24T17:34:14.603Z,98594.56
2023-10-24T17:36:41.880Z,98599.69
2023-10-24T17:39:10.477Z,98597.00
2023-10-24T17:41:37.412Z,98596.44
2023-10-24T17:44:04.893Z,98603.75
2023-10-24T17:46:31.859Z,98603.75
2023-10-24T17:48:59.571Z,98607.28
2023-10-24T17:51:26.479Z,98613.00
2023-10-24T17:53:54.180Z,98612.19
2023-10-24T17:56:24.067Z,98614.09
2023-10-24T17:58:51.175Z,98615.41
2023-10-24T18:01:18.321Z,98613.50
2023-10-24T18:03:45.897Z,98621.66
2023-10-24T18:06:16.189Z,98624.13
2023-10-24T18:08:43.268Z,98628.19
2023-10-24T18:11:18.175Z,98626.56
2023-10-24T18:13:46.918Z,98619.75
2023-10-24T18:16:15.669Z,98627.59
2023-10-24T18:18:43.012Z,98636.84
2023-10-24T18:21:13.715Z,98632.47
2023-10-24T18:23:43.098Z,98640.63
2023-10-24T18:26:10.609Z,98648.78
2023-10-24T18:28:38.206Z,98652.56
2023-10-24T18:31:06.972Z,98648.75
2023-10-24T18:33:37.415Z,98656.06
2023-10-24T18:36:07.684Z,98657.97
2023-10-24T18:38:38.956Z,98662.03
2023-10-24T18:41:06.128Z,98661.22
2023-10-24T18:43:35.110Z,98657.66
2023-10-24T18:46:06.899Z,98657.66
2023-10-24T18:48:35.685Z,98659.53
2023-10-24T18:51:13.218Z,98666.88
2023-10-24T18:53:48.553Z,98663.03
2023-10-24T18:56:20.562Z,98663.53
2023-10-24T18:58:51.669Z,98663.53
2023-10-24T19:04:10.012Z,98669.25
2023-10-24T19:06:40.155Z,98668.16
2023-10-24T19:09:07.630Z,98675.47
2023-10-24T19:11:35.430Z,98671.69
2023-10-24T19:14:03.571Z,98676.00
2023-10-24T19:16:36.425Z,98686.84
2023-10-24T19:19:04.213Z,98686.06
2023-10-24T19:21:31.833Z,98689.84
2023-10-24T19:24:01.231Z,98689.03
2023-10-24T19:26:31.872Z,98691.97
2023-10-24T19:28:59.839Z,98694.13
2023-10-24T19:31:28.000Z,98690.94
2023-10-24T19:33:58.262Z,98693.94
2023-10-24T19:36:26.581Z,98700.75
2023-10-24T19:38:54.315Z,98705.91
2023-10-24T19:41:23.982Z,98712.97
2023-10-24T19:43:51.967Z,98702.13
2023-10-24T19:46:25.357Z,98706.75
2023-10-24T19:48:53.697Z,98704.03
2023-10-24T19:51:23.588Z,98709.16
2023-10-24T19:53:51.494Z,98713.22
2023-10-24T19:56:21.239Z,98714.75
2023-10-24T19:58:51.911Z,98716.91
2023-10-24T20:01:19.966Z,98713.09
2023-10-24T20:03:48.691Z,98714.38
2023-10-24T20:06:16.798Z,98710.81
2023-10-24T20:08:46.532Z,98710.56
2023-10-24T20:12:33.684Z,98715.41
2023-10-24T20:14:02.741Z,98717.78
2023-10-24T20:16:34.311Z,98716.66
2023-10-24T20:19:02.349Z,98713.75
2023-10-24T20:21:31.079Z,98700.50
2023-10-24T20:24:00.401Z,98714.06
2023-10-24T20:26:28.374Z,98722.16
2023-10-24T20:28:55.458Z,98717.34
2023-10-24T20:31:22.449Z,98723.94
2023-10-24T20:33:49.948Z,98725.66
2023-10-24T20:36:17.018Z,98728.19
2023-10-24T20:38:44.150Z,98723.88
2023-10-24T20:41:13.281Z,98727.72
2023-10-24T20:43:40.327Z,98728.19
2023-10-24T20:46:07.749Z,98726.66
2023-10-24T20:48:36.283Z,98722.78
2023-10-24T20:51:03.683Z,98719.19
2023-10-24T20:53:31.313Z,98719.13
2023-10-24T20:56:00.789Z,98725.97
2023-10-24T20:58:29.716Z,98730.72
2023-10-24T21:00:57.030Z,98726.69
2023-10-24T21:03:24.276Z,98723.47
2023-10-24T21:05:51.240Z,98722.66
2023-10-24T21:08:21.224Z,98722.81
2023-10-24T21:10:55.527Z,98730.19
2023-10-24T21:13:24.158Z,98730.59
2023-10-24T21:15:57.348Z,98741.50
2023-10-24T21:18:24.931Z,98736.84
2023-10-24T21:20:52.649Z,98739.38
2023-10-24T21:23:19.828Z,98732.03
2023-10-24T21:25:49.407Z,98740.50
2023-10-24T21:28:18.011Z,98744.41
2023-10-24T21:30:47.359Z,98743.69
2023-10-24T21:33:16.245Z,98741.34
2023-10-24T21:35:43.712Z,98741.94
2023-10-24T21:38:11.004Z,98736.84
2023-10-24T21:40:38.291Z,98739.28
2023-10-24T21:43:07.792Z,98735.22
2023-10-24T21:45:34.852Z,98731.50
2023-10-24T21:48:01.812Z,98728.00
2023-10-24T21:50:30.542Z,98731.84
2023-10-24T21:52:57.667Z,98739.50
2023-10-24T21:55:24.692Z,98736.25
2023-10-24T21:57:51.709Z,98736.31
2023-10-24T22:00:19.054Z,98734.19
2023-10-24T22:02:46.469Z,98736.66
2023-10-24T22:05:13.970Z,98737.03
2023-10-24T22:07:42.685Z,98734.13
2023-10-24T22:10:10.468Z,98735.81
2023-10-24T22:12:38.416Z,98731.00
2023-10-24T22:15:14.106Z,98732.69
2023-10-24T22:17:42.356Z,98729.47
2023-10-24T22:20:10.734Z,98728.13
2023-10-24T22:22:38.008Z,98735.47
2023-10-24T22:25:08.245Z,98730.56
2023-10-24T22:27:35.579Z,98728.28
2023-10-24T22:30:03.641Z,98737.53
2023-10-24T22:32:32.182Z,98731.56
2023-10-24T22:34:59.234Z,98730.44
2023-10-24T22:37:27.129Z,98737.75
2023-10-24T22:39:54.259Z,98724.72
2023-10-24T22:42:23.873Z,98730.22
2023-10-24T22:44:50.914Z,98736.94
2023-10-24T22:47:17.923Z,98741.28
2023-10-24T22:49:50.034Z,98754.31
2023-10-24T22:52:17.018Z,98746.03
2023-10-24T22:54:44.684Z,98744.94
2023-10-24T22:57:11.870Z,98747.56
2023-10-24T22:59:40.376Z,98738.16
2023-10-24T23:02:07.759Z,98741.13
2023-10-24T23:04:34.688Z,98740.72
2023-10-24T23:07:03.939Z,98744.31
2023-10-24T23:09:31.260Z,98743.06
2023-10-24T23:11:58.236Z,98752.28
2023-10-24T23:14:25.448Z,98743.31
2023-10-24T23:16:56.378Z,98741.44
2023-10-24T23:19:23.588Z,98734.34
2023-10-24T23:21:58.484Z,98731.84
2023-10-24T23:24:27.456Z,98727.09
2023-10-24T23:26:56.036Z,98728.75
2023-10-24T23:29:23.482Z,98721.66
2023-10-24T23:31:52.448Z,98728.59
2023-10-24T23:34:24.612Z,98733.59
2023-10-24T23:36:51.665Z,98733.94
2023-10-24T23:39:19.261Z,98731.56
2023-10-24T23:41:47.799Z,98731.25
2023-10-24T23:44:15.099Z,98724.97
2023-10-24T23:46:42.388Z,98722.56
2023-10-24T23:49:09.340Z,98713.88
2023-10-24T23:51:38.274Z,98716.00
2023-10-24T23:54:06.345Z,98718.22
2023-10-24T23:56:33.411Z,98712.56
2023-10-24T23:59:01.823Z,98714.69
